createdAt,value
2023-06-18T00:03:32.203Z,19.5
2023-06-18T00:23:32.548Z,18.9
2023-06-18T00:43:32.917Z,18.5
2023-06-18T00:53:33.135Z,18.3
2023-06-18T01:03:33.323Z,18.2
2023-06-18T01:13:33.506Z,17.9
2023-06-18T01:23:33.724Z,17.9
2023-06-18T01:33:33.896Z,17.9
2023-06-18T01:43:34.102Z,17.9
2023-06-18T01:53:34.310Z,17.7
2023-06-18T02:03:34.672Z,17.5
2023-06-18T02:43:35.350Z,17.8
2023-06-18T02:53:35.475Z,17.9
2023-06-18T03:03:35.689Z,17.9
2023-06-18T03:13:35.891Z,17.9
2023-06-18T03:23:36.074Z,17.9
2023-06-18T03:33:36.267Z,17.9
2023-06-18T03:43:36.503Z,17.7
2023-06-18T03:53:36.664Z,17.7
2023-06-18T04:03:36.981Z,17.8
2023-06-18T04:13:37.040Z,17.9
2023-06-18T04:23:37.214Z,18
2023-06-18T04:33:37.424Z,17.9
2023-06-18T04:43:37.616Z,17.9
2023-06-18T04:53:37.815Z,18
2023-06-18T05:03:38.075Z,18
2023-06-18T05:13:38.226Z,18.3
2023-06-18T05:23:38.435Z,18.6
2023-06-18T05:33:38.611Z,19.1
2023-06-18T05:43:38.826Z,19.4
2023-06-18T05:53:39.008Z,19.7
2023-06-18T06:03:39.260Z,20.2
2023-06-18T06:13:39.392Z,20.6
2023-06-18T06:23:39.584Z,20.8
2023-06-18T06:33:39.791Z,20.9
2023-06-18T06:43:40.064Z,21.3
2023-06-18T06:53:40.181Z,22
2023-06-18T07:03:40.395Z,22.6
2023-06-18T07:23:40.771Z,23.3
2023-06-18T07:53:41.394Z,24.8
2023-06-18T08:13:41.740Z,25.8
2023-06-18T08:33:42.130Z,26.1
2023-06-18T08:43:42.340Z,26.6
2023-06-18T08:53:42.533Z,26.8
2023-06-18T09:03:42.734Z,27.1
2023-06-18T09:13:42.975Z,27.3
2023-06-18T09:23:43.112Z,27.5
2023-06-18T09:33:43.305Z,27.8
2023-06-18T10:43:44.690Z,28.3
2023-06-18T10:53:44.873Z,29
2023-06-18T11:03:45.106Z,28.9
2023-06-18T11:13:45.261Z,29.2
2023-06-18T11:43:45.849Z,30
2023-06-18T11:53:47.126Z,29.4
2023-06-18T12:03:46.252Z,29.3
2023-06-18T12:23:46.620Z,29.5
2023-06-18T12:33:46.836Z,29.3
2023-06-18T12:53:47.230Z,30.6
2023-06-18T13:03:47.465Z,29.5
2023-06-18T13:13:47.599Z,29.5
2023-06-18T13:23:47.797Z,29.5
2023-06-18T13:33:47.993Z,29.2
2023-06-18T13:43:48.201Z,29
2023-06-18T13:53:48.417Z,29
2023-06-18T14:03:48.718Z,29
2023-06-18T14:13:48.835Z,28.8
2023-06-18T14:23:48.994Z,28.8
2023-06-18T14:33:53.095Z,28.4
2023-06-18T14:43:49.364Z,28.3
2023-06-18T14:53:49.573Z,28.4
2023-06-18T15:03:49.861Z,28.3
2023-06-18T15:13:49.979Z,28.2
2023-06-18T15:23:50.140Z,27.9
2023-06-18T15:33:50.335Z,27.6
2023-06-18T15:43:50.546Z,27.5
2023-06-18T15:53:50.758Z,27.5
2023-06-18T16:03:50.967Z,27.5
2023-06-18T16:23:51.466Z,27.4
2023-06-18T16:33:51.551Z,27.2
2023-06-18T16:43:51.700Z,27.1
2023-06-18T16:53:51.890Z,26.9
2023-06-18T17:03:52.110Z,26.8
2023-06-18T17:13:52.315Z,26.7
2023-06-18T17:23:52.535Z,26.6
2023-06-18T17:33:52.698Z,26.6
2023-06-18T17:43:52.881Z,26.4
2023-06-18T17:53:53.084Z,26.4
2023-06-18T18:03:53.366Z,26.3
2023-06-18T18:13:53.489Z,26.3
2023-06-18T18:23:53.685Z,26.2
2023-06-18T18:33:53.843Z,26.1
2023-06-18T18:53:54.241Z,26
2023-06-18T19:13:54.643Z,25.7
2023-06-18T19:23:54.868Z,25.6
2023-06-18T19:33:55.032Z,25.4
2023-06-18T19:43:55.224Z,25.4
2023-06-18T19:53:55.426Z,25.2
2023-06-18T20:03:55.703Z,25.2
2023-06-18T20:13:55.819Z,25.2
2023-06-18T20:23:56.052Z,25.2
2023-06-18T20:33:56.210Z,25.1
2023-06-18T20:43:56.414Z,25
2023-06-18T20:53:56.595Z,25
2023-06-18T21:43:57.555Z,24.7
2023-06-18T22:03:58.014Z,24.3
2023-06-18T22:23:58.396Z,24.5
2023-06-18T22:33:58.540Z,24.4
2023-06-18T23:23:59.554Z,24.7
2023-06-18T23:43:59.908Z,24.5
